| time (UTC) | temp F | wind direction | speed MPH | gust MPH | rain 1hr in | rain 24hr in | rain mn in | humidity % | barometer mb |
| 20260510032039 | 55 | 118 | 0.0 | 0.0 | 0.00 | 0.00 | 0.00 | 90 | 1012.7 |
| 20260510031539 | 55 | 118 | 0.0 | 0.0 | 0.00 | 0.00 | 0.00 | 88 | 1012.7 |
| 20260510031035 | 55 | 118 | 0.0 | 0.0 | 0.00 | 0.00 | 0.00 | 87 | 1012.5 |
| 20260510030531 | 56 | 118 | 0.0 | 0.0 | 0.00 | 0.00 | 0.00 | 87 | 1012.5 |
| 20260510030028 | 56 | 118 | 0.0 | 0.0 | 0.00 | 0.00 | 0.00 | 86 | 1012.6 |
| 20260510025525 | 56 | 118 | 0.0 | 0.0 | 0.00 | 0.00 | 0.00 | 86 | 1012.5 |
| 20260510025023 | 56 | 118 | 0.0 | 0.0 | 0.00 | 0.00 | 0.00 | 85 | 1012.6 |
| 20260510024519 | 56 | 118 | 0.0 | 0.0 | 0.00 | 0.00 | 0.00 | 85 | 1012.4 |
| 20260510024015 | 56 | 118 | 1.0 | 1.0 | 0.00 | 0.00 | 0.00 | 85 | 1012.6 |
| 20260510023511 | 56 | 229 | 0.0 | 0.0 | 0.00 | 0.00 | 0.00 | 83 | 1012.4 |
| 20260510023009 | 57 | 229 | 0.0 | 1.0 | 0.00 | 0.00 | 0.00 | 83 | 1012.2 |
| 20260510022508 | 58 | 206 | 0.0 | 0.0 | 0.00 | 0.00 | 0.00 | 81 | 1012.3 |
| 20260510022008 | 58 | 206 | 0.0 | 0.0 | 0.00 | 0.00 | 0.00 | 80 | 1012.1 |
| 20260510021505 | 58 | 206 | 0.0 | 0.0 | 0.00 | 0.00 | 0.00 | 80 | 1012.3 |
| 20260510021002 | 58 | 206 | 0.0 | 0.0 | 0.00 | 0.00 | 0.00 | 80 | 1012.2 |
| 20260510020456 | 58 | 206 | 0.0 | 0.0 | 0.00 | 0.00 | 0.00 | 80 | 1012.1 |
| 20260510015952 | 58 | 206 | 0.0 | 0.0 | 0.00 | 0.00 | 0.00 | 80 | 1012.0 |
| 20260510015448 | 59 | 206 | 0.0 | 0.0 | 0.00 | 0.00 | 0.00 | 79 | 1012.0 |
| 20260510014943 | 59 | 206 | 0.0 | 0.0 | 0.00 | 0.00 | 0.00 | 78 | 1011.8 |
| 20260510014441 | 59 | 206 | 0.0 | 0.0 | 0.00 | 0.00 | 0.00 | 78 | 1011.7 |
| 20260510013938 | 59 | 206 | 0.0 | 0.0 | 0.00 | 0.00 | 0.00 | 78 | 1011.6 |
| 20260510013432 | 60 | 206 | 0.0 | 0.0 | 0.00 | 0.00 | 0.00 | 77 | 1011.5 |
| 20260510012928 | 60 | 206 | 0.0 | 0.0 | 0.00 | 0.00 | 0.00 | 76 | 1011.4 |
| 20260510012423 | 60 | 206 | 0.0 | 0.0 | 0.00 | 0.00 | 0.00 | 75 | 1011.3 |
| 20260510011918 | 61 | 206 | 0.0 | 0.0 | 0.00 | 0.00 | 0.00 | 74 | 1011.4 |
| 20260510011413 | 61 | 206 | 0.0 | 0.0 | 0.00 | 0.00 | 0.00 | 73 | 1011.2 |
| 20260510010910 | 62 | 206 | 0.0 | 0.0 | 0.00 | 0.00 | 0.00 | 72 | 1010.9 |
| 20260510010407 | 62 | 206 | 0.0 | 0.0 | 0.00 | 0.00 | 0.00 | 71 | 1011.0 |
| 20260510005904 | 63 | 206 | 0.0 | 0.0 | 0.00 | 0.00 | 0.00 | 70 | 1010.9 |
| 20260510005400 | 63 | 206 | 0.0 | 1.0 | 0.00 | 0.00 | 0.00 | 69 | 1010.8 |
| 20260510004858 | 63 | 206 | 0.0 | 0.0 | 0.00 | 0.00 | 0.00 | 68 | 1010.9 |
| 20260510004355 | 64 | 206 | 0.0 | 1.0 | 0.00 | 0.00 | 0.00 | 68 | 1010.4 |
| 20260510003853 | 64 | 206 | 0.0 | 0.0 | 0.00 | 0.00 | 0.00 | 67 | 1010.5 |
| 20260510003349 | 65 | 206 | 0.0 | 1.0 | 0.00 | 0.00 | 0.00 | 65 | 1010.6 |
| 20260510002848 | 65 | 211 | 0.0 | 0.0 | 0.00 | 0.00 | 0.00 | 64 | 1010.5 |
| 20260510002346 | 66 | 211 | 0.0 | 1.0 | 0.00 | 0.00 | 0.00 | 63 | 1010.5 |
| 20260510001842 | 67 | 211 | 0.0 | 0.0 | 0.00 | 0.00 | 0.00 | 61 | 1010.3 |
| 20260510001340 | 68 | 212 | 0.0 | 0.0 | 0.00 | 0.00 | 0.00 | 60 | 1010.1 |
| 20260510000836 | 69 | 211 | 0.0 | 0.0 | 0.00 | 0.00 | 0.00 | 57 | 1010.2 |
| 20260510000334 | 69 | 212 | 0.0 | 0.0 | 0.00 | 0.00 | 0.00 | 57 | 1010.4 |
| 20260509235830 | 70 | 229 | 1.0 | 1.0 | 0.00 | 0.00 | 0.00 | 55 | 1010.2 |
| 20260509235327 | 70 | 217 | 2.0 | 2.0 | 0.00 | 0.00 | 0.00 | 55 | 1010.4 |
| 20260509234822 | 70 | 215 | 1.0 | 2.0 | 0.00 | 0.00 | 0.00 | 56 | 1010.2 |
| 20260509234319 | 70 | 221 | 2.0 | 2.0 | 0.00 | 0.00 | 0.00 | 55 | 1010.4 |
| 20260509233818 | 71 | 226 | 0.0 | 2.0 | 0.00 | 0.00 | 0.00 | 55 | 1010.1 |
| 20260509233315 | 72 | 236 | 1.0 | 2.0 | 0.00 | 0.00 | 0.00 | 53 | 1010.1 |
| 20260509232811 | 72 | 223 | 2.0 | 2.0 | 0.00 | 0.00 | 0.00 | 53 | 1010.0 |
| 20260509232308 | 73 | 224 | 1.0 | 2.0 | 0.00 | 0.00 | 0.00 | 53 | 1010.2 |
| 20260509231804 | 73 | 215 | 0.0 | 3.0 | 0.00 | 0.00 | 0.00 | 52 | 1010.0 |
| 20260509231301 | 74 | 230 | 1.0 | 2.0 | 0.00 | 0.00 | 0.00 | 51 | 1009.8 |
| 20260509230759 | 74 | 223 | 3.0 | 4.0 | 0.00 | 0.00 | 0.00 | 48 | 1010.0 |
| 20260509230256 | 74 | 209 | 2.0 | 2.0 | 0.00 | 0.00 | 0.00 | 49 | 1009.9 |
| 20260509225751 | 73 | 210 | 0.0 | 3.0 | 0.00 | 0.00 | 0.00 | 52 | 1010.1 |
| 20260509225247 | 75 | 220 | 4.0 | 4.0 | 0.00 | 0.00 | 0.00 | 48 | 1010.0 |
| 20260509224743 | 75 | 224 | 3.0 | 6.0 | 0.00 | 0.00 | 0.00 | 46 | 1010.0 |
| 20260509224241 | 75 | 206 | 2.0 | 4.0 | 0.00 | 0.00 | 0.00 | 47 | 1010.1 |
| 20260509223737 | 75 | 240 | 0.0 | 3.0 | 0.00 | 0.00 | 0.00 | 49 | 1010.1 |
| 20260509223234 | 75 | 275 | 5.0 | 6.0 | 0.00 | 0.00 | 0.00 | 45 | 1010.0 |
| 20260509222731 | 76 | 215 | 0.0 | 3.0 | 0.00 | 0.00 | 0.00 | 47 | 1009.9 |
| 20260509222226 | 75 | 251 | 2.0 | 3.0 | 0.00 | 0.00 | 0.00 | 48 | 1009.9 |
| 20260509221722 | 73 | 264 | 2.0 | 4.0 | 0.00 | 0.00 | 0.00 | 48 | 1009.8 |
| 20260509221219 | 73 | 224 | 1.0 | 4.0 | 0.00 | 0.00 | 0.00 | 49 | 1010.2 |
| 20260509220714 | 73 | 242 | 2.0 | 3.0 | 0.00 | 0.00 | 0.00 | 48 | 1009.9 |
| 20260509220211 | 73 | 224 | 3.0 | 4.0 | 0.00 | 0.00 | 0.00 | 49 | 1010.1 |
| 20260509215707 | 73 | 212 | 3.0 | 7.0 | 0.00 | 0.00 | 0.00 | 47 | 1010.1 |
| 20260509215204 | 74 | 162 | 2.0 | 6.0 | 0.00 | 0.00 | 0.00 | 48 | 1010.1 |
| 20260509214701 | 74 | 217 | 5.0 | 7.0 | 0.00 | 0.00 | 0.00 | 46 | 1010.2 |
| 20260509214158 | 73 | 191 | 3.0 | 6.0 | 0.00 | 0.00 | 0.00 | 46 | 1010.1 |
| 20260509213655 | 74 | 240 | 3.0 | 6.0 | 0.00 | 0.00 | 0.00 | 45 | 1009.9 |
| 20260509213150 | 74 | 250 | 3.0 | 6.0 | 0.00 | 0.00 | 0.00 | 46 | 1010.0 |
| 20260509212648 | 74 | 275 | 8.0 | 11.0 | 0.00 | 0.00 | 0.00 | 45 | 1010.1 |
| 20260509212144 | 75 | 272 | 6.0 | 9.0 | 0.00 | 0.00 | 0.00 | 44 | 1009.8 |
| 20260509211640 | 77 | 213 | 2.0 | 8.0 | 0.00 | 0.00 | 0.00 | 47 | 1010.0 |
| 20260509211137 | 77 | 261 | 3.0 | 4.0 | 0.00 | 0.00 | 0.00 | 42 | 1009.7 |
| 20260509210635 | 75 | 260 | 2.0 | 4.0 | 0.00 | 0.00 | 0.00 | 43 | 1009.8 |
| 20260509210132 | 73 | 226 | 0.0 | 4.0 | 0.00 | 0.00 | 0.00 | 49 | 1009.9 |
| 20260509205626 | 74 | 253 | 5.0 | 8.0 | 0.00 | 0.00 | 0.00 | 46 | 1009.7 |
| 20260509205121 | 76 | 114 | 1.0 | 2.0 | 0.00 | 0.00 | 0.00 | 46 | 1009.5 |
| 20260509204617 | 77 | 240 | 4.0 | 6.0 | 0.00 | 0.00 | 0.00 | 44 | 1009.6 |
| 20260509204114 | 76 | 258 | 4.0 | 4.0 | 0.00 | 0.00 | 0.00 | 46 | 1009.6 |
| 20260509203610 | 77 | 252 | 4.0 | 9.0 | 0.00 | 0.00 | 0.00 | 43 | 1009.8 |
| 20260509203108 | 76 | 230 | 6.0 | 9.0 | 0.00 | 0.00 | 0.00 | 45 | 1009.8 |
| 20260509202602 | 76 | 221 | 5.0 | 7.0 | 0.00 | 0.00 | 0.00 | 44 | 1009.7 |
| 20260509202058 | 76 | 190 | 6.0 | 9.0 | 0.00 | 0.00 | 0.00 | 44 | 1009.7 |
| 20260509201553 | 74 | 142 | 1.0 | 3.0 | 0.00 | 0.00 | 0.00 | 50 | 1010.0 |
| 20260509201051 | 74 | 207 | 2.0 | 4.0 | 0.00 | 0.00 | 0.00 | 47 | 1009.9 |
| 20260509200550 | 75 | 246 | 2.0 | 8.0 | 0.00 | 0.00 | 0.00 | 45 | 1009.8 |
| 20260509200047 | 76 | 245 | 8.0 | 9.0 | 0.00 | 0.00 | 0.00 | 46 | 1010.0 |
| 20260509195543 | 75 | 153 | 1.0 | 1.0 | 0.00 | 0.00 | 0.00 | 50 | 1009.9 |
| 20260509195038 | 76 | 242 | 6.0 | 14.0 | 0.00 | 0.00 | 0.00 | 45 | 1010.0 |
| 20260509194532 | 74 | 225 | 2.0 | 6.0 | 0.00 | 0.00 | 0.00 | 48 | 1009.9 |
| 20260509194031 | 77 | 121 | 2.0 | 6.0 | 0.00 | 0.00 | 0.00 | 47 | 1010.2 |
| 20260509193530 | 76 | 197 | 4.0 | 8.0 | 0.00 | 0.00 | 0.00 | 47 | 1010.4 |
| 20260509193027 | 74 | 213 | 6.0 | 7.0 | 0.00 | 0.00 | 0.00 | 51 | 1010.4 |
| 20260509192519 | 75 | 250 | 7.0 | 10.0 | 0.00 | 0.00 | 0.00 | 51 | 1010.5 |
| 20260509192013 | 74 | 216 | 6.0 | 8.0 | 0.00 | 0.00 | 0.00 | 50 | 1010.5 |
| 20260509191508 | 73 | 217 | 2.0 | 9.0 | 0.00 | 0.00 | 0.00 | 52 | 1010.6 |
| 20260509191004 | 73 | 220 | 3.0 | 4.0 | 0.00 | 0.00 | 0.00 | 50 | 1010.6 |
| 20260509190501 | 72 | 222 | 4.0 | 8.0 | 0.00 | 0.00 | 0.00 | 55 | 1010.6 |
| 20260509185959 | 71 | 103 | 2.0 | 4.0 | 0.00 | 0.00 | 0.00 | 54 | 1010.9 |
| 20260509185455 | 72 | 212 | 2.0 | 7.0 | 0.00 | 0.00 | 0.00 | 58 | 1011.0 |
| 20260509184952 | 73 | 198 | 4.0 | 6.0 | 0.00 | 0.00 | 0.00 | 49 | 1011.0 |
| 20260509184450 | 73 | 253 | 7.0 | 8.0 | 0.00 | 0.00 | 0.00 | 51 | 1011.1 |
| 20260509183947 | 71 | 263 | 5.0 | 9.0 | 0.00 | 0.00 | 0.00 | 57 | 1010.9 |
| 20260509183447 | 71 | 245 | 3.0 | 4.0 | 0.00 | 0.00 | 0.00 | 57 | 1011.1 |
| 20260509182944 | 70 | 221 | 3.0 | 7.0 | 0.00 | 0.00 | 0.00 | 57 | 1011.1 |
| 20260509182440 | 70 | 228 | 4.0 | 8.0 | 0.00 | 0.00 | 0.00 | 57 | 1011.1 |
| 20260509181937 | 70 | 231 | 3.0 | 6.0 | 0.00 | 0.00 | 0.00 | 59 | 1011.3 |
| 20260509181435 | 69 | 189 | 6.0 | 7.0 | 0.00 | 0.00 | 0.00 | 58 | 1011.6 |
| 20260509180932 | 70 | 221 | 3.0 | 6.0 | 0.00 | 0.00 | 0.00 | 58 | 1011.7 |
| 20260509180427 | 69 | 237 | 4.0 | 7.0 | 0.00 | 0.00 | 0.00 | 58 | 1011.6 |
| 20260509175924 | 69 | 210 | 1.0 | 8.0 | 0.00 | 0.00 | 0.00 | 61 | 1011.7 |
| 20260509175421 | 69 | 211 | 2.0 | 9.0 | 0.00 | 0.00 | 0.00 | 60 | 1012.0 |
| 20260509174917 | 69 | 273 | 4.0 | 6.0 | 0.00 | 0.00 | 0.00 | 61 | 1012.1 |
| 20260509174413 | 69 | 225 | 4.0 | 4.0 | 0.00 | 0.00 | 0.00 | 58 | 1012.4 |
| 20260509173910 | 69 | 211 | 3.0 | 4.0 | 0.00 | 0.00 | 0.00 | 60 | 1012.3 |
| 20260509173409 | 67 | 139 | 1.0 | 4.0 | 0.00 | 0.00 | 0.00 | 62 | 1012.3 |
| 20260509172906 | 67 | 220 | 3.0 | 4.0 | 0.00 | 0.00 | 0.00 | 60 | 1012.1 |
| 20260509172403 | 67 | 232 | 3.0 | 7.0 | 0.00 | 0.00 | 0.00 | 60 | 1012.3 |
| 20260509171858 | 67 | 215 | 2.0 | 6.0 | 0.00 | 0.00 | 0.00 | 62 | 1012.5 |
| 20260509171354 | 67 | 243 | 8.0 | 9.0 | 0.00 | 0.00 | 0.00 | 60 | 1012.6 |
| 20260509170851 | 67 | 177 | 1.0 | 2.0 | 0.00 | 0.00 | 0.00 | 61 | 1012.7 |
| 20260509170341 | 68 | 224 | 6.0 | 7.0 | 0.00 | 0.00 | 0.00 | 59 | 1012.5 |
| 20260509165836 | 68 | 213 | 0.0 | 1.0 | 0.00 | 0.00 | 0.00 | 64 | 1012.5 |
| 20260509165330 | 67 | 232 | 4.0 | 6.0 | 0.00 | 0.00 | 0.00 | 60 | 1012.5 |
| 20260509164827 | 67 | 248 | 4.0 | 6.0 | 0.00 | 0.00 | 0.00 | 61 | 1012.3 |
| 20260509164323 | 67 | 226 | 6.0 | 10.0 | 0.00 | 0.00 | 0.00 | 59 | 1012.2 |
| 20260509163819 | 67 | 254 | 5.0 | 8.0 | 0.00 | 0.00 | 0.00 | 60 | 1012.4 |
| 20260509163316 | 69 | 213 | 3.0 | 7.0 | 0.00 | 0.00 | 0.00 | 60 | 1012.3 |
| 20260509162815 | 69 | 270 | 6.0 | 8.0 | 0.00 | 0.00 | 0.00 | 57 | 1012.1 |
| 20260509162308 | 68 | 210 | 2.0 | 3.0 | 0.00 | 0.00 | 0.00 | 61 | 1012.2 |
| 20260509161805 | 68 | 242 | 4.0 | 6.0 | 0.00 | 0.00 | 0.00 | 61 | 1012.3 |
| 20260509161301 | 67 | 241 | 9.0 | 11.0 | 0.00 | 0.00 | 0.00 | 58 | 1012.4 |
| 20260509160756 | 68 | 267 | 6.0 | 9.0 | 0.00 | 0.00 | 0.00 | 59 | 1012.5 |
| 20260509160253 | 67 | 248 | 5.0 | 8.0 | 0.00 | 0.00 | 0.00 | 60 | 1012.3 |
| 20260509155748 | 68 | 175 | 4.0 | 9.0 | 0.00 | 0.00 | 0.00 | 59 | 1012.6 |
| 20260509155245 | 67 | 226 | 6.0 | 9.0 | 0.00 | 0.00 | 0.00 | 58 | 1012.3 |
| 20260509154741 | 67 | 174 | 3.0 | 6.0 | 0.00 | 0.00 | 0.00 | 60 | 1012.4 |
| 20260509154238 | 68 | 251 | 3.0 | 4.0 | 0.00 | 0.00 | 0.00 | 60 | 1012.5 |
| 20260509153736 | 68 | 227 | 4.0 | 7.0 | 0.00 | 0.00 | 0.00 | 59 | 1012.6 |
| 20260509153231 | 66 | 217 | 2.0 | 3.0 | 0.00 | 0.00 | 0.00 | 60 | 1012.6 |
| 20260509152727 | 66 | 222 | 2.0 | 3.0 | 0.00 | 0.00 | 0.00 | 62 | 1012.3 |
| 20260509152219 | 67 | 193 | 2.0 | 6.0 | 0.00 | 0.00 | 0.00 | 62 | 1012.3 |
| 20260509151716 | 66 | 220 | 2.0 | 3.0 | 0.00 | 0.00 | 0.00 | 61 | 1012.9 |
| 20260509151213 | 65 | 236 | 2.0 | 4.0 | 0.00 | 0.00 | 0.00 | 61 | 1012.9 |
| 20260509150711 | 67 | 227 | 5.0 | 9.0 | 0.00 | 0.00 | 0.00 | 60 | 1012.9 |
| 20260509150209 | 66 | 207 | 4.0 | 7.0 | 0.00 | 0.00 | 0.00 | 58 | 1012.7 |
| 20260509145705 | 65 | 205 | 4.0 | 6.0 | 0.00 | 0.00 | 0.00 | 58 | 1012.6 |
| 20260509145200 | 65 | 211 | 5.0 | 6.0 | 0.00 | 0.00 | 0.00 | 61 | 1012.6 |
| 20260509144657 | 65 | 222 | 3.0 | 4.0 | 0.00 | 0.00 | 0.00 | 59 | 1012.6 |
| 20260509144154 | 65 | 229 | 2.0 | 2.0 | 0.00 | 0.00 | 0.00 | 61 | 1012.7 |
| 20260509143651 | 63 | 267 | 1.0 | 8.0 | 0.00 | 0.00 | 0.00 | 63 | 1012.6 |
| 20260509143149 | 62 | 130 | 0.0 | 1.0 | 0.00 | 0.00 | 0.00 | 67 | 1012.7 |
| 20260509142644 | 62 | 241 | 3.0 | 8.0 | 0.00 | 0.00 | 0.00 | 64 | 1012.8 |
| 20260509142141 | 61 | 221 | 0.0 | 3.0 | 0.00 | 0.00 | 0.00 | 66 | 1012.9 |
| 20260509141637 | 62 | 187 | 4.0 | 6.0 | 0.00 | 0.00 | 0.00 | 64 | 1013.0 |
| 20260509141133 | 61 | 255 | 0.0 | 1.0 | 0.00 | 0.00 | 0.00 | 63 | 1013.2 |
| 20260509140630 | 60 | 233 | 1.0 | 3.0 | 0.00 | 0.00 | 0.00 | 69 | 1013.2 |
| 20260509140128 | 60 | 220 | 2.0 | 4.0 | 0.00 | 0.00 | 0.00 | 67 | 1013.3 |
| 20260509135625 | 60 | 242 | 2.0 | 3.0 | 0.00 | 0.00 | 0.00 | 66 | 1013.3 |
| 20260509135123 | 59 | 271 | 3.0 | 4.0 | 0.00 | 0.00 | 0.00 | 69 | 1013.6 |
| 20260509134619 | 59 | 226 | 2.0 | 3.0 | 0.00 | 0.00 | 0.00 | 69 | 1013.4 |
| 20260509134117 | 59 | 227 | 2.0 | 4.0 | 0.00 | 0.00 | 0.00 | 67 | 1013.4 |
| 20260509133614 | 58 | 159 | 0.0 | 3.0 | 0.00 | 0.00 | 0.00 | 70 | 1013.5 |
| 20260509133111 | 58 | 155 | 2.0 | 7.0 | 0.00 | 0.00 | 0.00 | 68 | 1013.6 |
| 20260509132609 | 58 | 246 | 2.0 | 3.0 | 0.00 | 0.00 | 0.00 | 66 | 1013.6 |
| 20260509132108 | 58 | 204 | 3.0 | 3.0 | 0.00 | 0.00 | 0.00 | 67 | 1013.5 |
| 20260509131603 | 58 | 219 | 3.0 | 3.0 | 0.00 | 0.00 | 0.00 | 68 | 1013.5 |
| 20260509131100 | 58 | 219 | 1.0 | 2.0 | 0.00 | 0.00 | 0.00 | 69 | 1013.4 |
| 20260509130556 | 58 | 196 | 4.0 | 4.0 | 0.00 | 0.00 | 0.00 | 68 | 1013.4 |
| 20260509130053 | 58 | 186 | 0.0 | 1.0 | 0.00 | 0.00 | 0.00 | 68 | 1013.4 |
| 20260509125549 | 58 | 221 | 0.0 | 1.0 | 0.00 | 0.00 | 0.00 | 70 | 1013.3 |
| 20260509125046 | 57 | 232 | 0.0 | 0.0 | 0.00 | 0.00 | 0.00 | 70 | 1013.5 |
| 20260509124542 | 56 | 218 | 0.0 | 0.0 | 0.00 | 0.00 | 0.00 | 70 | 1013.5 |
| 20260509124040 | 56 | 222 | 0.0 | 2.0 | 0.00 | 0.00 | 0.00 | 71 | 1013.6 |
| 20260509123538 | 56 | 228 | 0.0 | 2.0 | 0.00 | 0.00 | 0.00 | 70 | 1013.4 |
| 20260509123034 | 56 | 218 | 0.0 | 0.0 | 0.00 | 0.00 | 0.00 | 70 | 1013.4 |
| 20260509122530 | 56 | 218 | 0.0 | 0.0 | 0.00 | 0.00 | 0.00 | 70 | 1013.4 |
| 20260509122027 | 55 | 218 | 0.0 | 0.0 | 0.00 | 0.00 | 0.00 | 72 | 1013.5 |
| 20260509121524 | 55 | 220 | 0.0 | 0.0 | 0.00 | 0.00 | 0.00 | 71 | 1013.5 |
| 20260509121022 | 55 | 219 | 1.0 | 2.0 | 0.00 | 0.00 | 0.00 | 70 | 1013.4 |
| 20260509120520 | 55 | 208 | 0.0 | 0.0 | 0.00 | 0.00 | 0.00 | 71 | 1013.5 |
| 20260509120018 | 54 | 235 | 0.0 | 1.0 | 0.00 | 0.00 | 0.00 | 71 | 1013.5 |
| 20260509115514 | 54 | 238 | 0.0 | 0.0 | 0.00 | 0.00 | 0.00 | 71 | 1013.4 |
| 20260509115012 | 54 | 190 | 0.0 | 0.0 | 0.00 | 0.00 | 0.00 | 72 | 1013.4 |
| 20260509114510 | 54 | 218 | 0.0 | 1.0 | 0.00 | 0.00 | 0.00 | 70 | 1013.5 |
| 20260509114009 | 54 | 208 | 0.0 | 2.0 | 0.00 | 0.00 | 0.00 | 70 | 1013.5 |
| 20260509113507 | 54 | 187 | 1.0 | 3.0 | 0.00 | 0.00 | 0.00 | 69 | 1013.5 |
| 20260509113004 | 53 | 214 | 0.0 | 3.0 | 0.00 | 0.00 | 0.00 | 71 | 1013.3 |
| 20260509112500 | 53 | 195 | 0.0 | 1.0 | 0.00 | 0.00 | 0.00 | 71 | 1013.3 |
| 20260509111956 | 53 | 226 | 0.0 | 0.0 | 0.00 | 0.00 | 0.00 | 72 | 1013.4 |
| 20260509111454 | 53 | 226 | 0.0 | 0.0 | 0.00 | 0.00 | 0.00 | 72 | 1013.0 |
| 20260509110952 | 52 | 226 | 0.0 | 1.0 | 0.00 | 0.00 | 0.00 | 72 | 1013.2 |
| 20260509110448 | 52 | 226 | 0.0 | 0.0 | 0.00 | 0.00 | 0.00 | 72 | 1013.0 |
| 20260509105945 | 52 | 226 | 0.0 | 0.0 | 0.00 | 0.00 | 0.00 | 71 | 1013.1 |
| 20260509105444 | 52 | 226 | 0.0 | 1.0 | 0.00 | 0.00 | 0.00 | 71 | 1013.2 |
| 20260509104941 | 51 | 230 | 1.0 | 1.0 | 0.00 | 0.00 | 0.00 | 72 | 1013.2 |
| 20260509104437 | 51 | 275 | 0.0 | 0.0 | 0.00 | 0.00 | 0.00 | 73 | 1013.3 |
| 20260509103935 | 51 | 275 | 0.0 | 0.0 | 0.00 | 0.00 | 0.00 | 74 | 1013.2 |
| 20260509103432 | 51 | 275 | 0.0 | 0.0 | 0.00 | 0.00 | 0.00 | 72 | 1013.1 |
| 20260509102930 | 51 | 275 | 0.0 | 0.0 | 0.00 | 0.00 | 0.00 | 73 | 1013.1 |
| 20260509102427 | 51 | 274 | 0.0 | 0.0 | 0.00 | 0.00 | 0.00 | 72 | 1013.2 |
| 20260509101923 | 51 | 50 | 0.0 | 0.0 | 0.00 | 0.00 | 0.00 | 71 | 1013.2 |
| 20260509101419 | 52 | 50 | 0.0 | 0.0 | 0.00 | 0.00 | 0.00 | 70 | 1013.2 |
| 20260509100917 | 52 | 50 | 0.0 | 0.0 | 0.00 | 0.00 | 0.00 | 70 | 1013.1 |
| 20260509100414 | 52 | 49 | 0.0 | 0.0 | 0.00 | 0.00 | 0.00 | 70 | 1013.1 |
| 20260509095911 | 51 | 43 | 0.0 | 0.0 | 0.00 | 0.00 | 0.00 | 70 | 1013.2 |
| 20260509095408 | 51 | 35 | 0.0 | 0.0 | 0.00 | 0.00 | 0.00 | 71 | 1013.1 |
| 20260509094905 | 51 | 35 | 0.0 | 0.0 | 0.00 | 0.00 | 0.00 | 70 | 1013.1 |
| 20260509094401 | 52 | 35 | 0.0 | 0.0 | 0.00 | 0.00 | 0.00 | 70 | 1013.4 |
| 20260509093859 | 52 | 35 | 0.0 | 0.0 | 0.00 | 0.00 | 0.00 | 69 | 1013.5 |
| 20260509093356 | 52 | 35 | 0.0 | 0.0 | 0.00 | 0.00 | 0.00 | 68 | 1013.5 |
| 20260509092855 | 52 | 41 | 0.0 | 0.0 | 0.00 | 0.00 | 0.00 | 68 | 1013.6 |
| 20260509092352 | 52 | 41 | 0.0 | 0.0 | 0.00 | 0.00 | 0.00 | 68 | 1013.5 |
| 20260509091850 | 52 | 41 | 0.0 | 0.0 | 0.00 | 0.00 | 0.00 | 67 | 1013.4 |
| 20260509091347 | 52 | 41 | 0.0 | 0.0 | 0.00 | 0.00 | 0.00 | 66 | 1013.4 |
| 20260509090844 | 53 | 41 | 0.0 | 0.0 | 0.00 | 0.00 | 0.00 | 65 | 1013.4 |
| 20260509090342 | 53 | 41 | 0.0 | 0.0 | 0.00 | 0.00 | 0.00 | 65 | 1013.5 |
| 20260509085839 | 53 | 41 | 0.0 | 0.0 | 0.00 | 0.00 | 0.00 | 65 | 1013.5 |
| 20260509085336 | 53 | 41 | 0.0 | 0.0 | 0.00 | 0.00 | 0.00 | 65 | 1013.6 |
| 20260509084832 | 53 | 41 | 0.0 | 1.0 | 0.00 | 0.00 | 0.00 | 64 | 1013.5 |
| 20260509084329 | 53 | 44 | 0.0 | 1.0 | 0.00 | 0.00 | 0.00 | 65 | 1013.8 |
| 20260509083827 | 52 | 216 | 0.0 | 0.0 | 0.00 | 0.00 | 0.00 | 67 | 1013.7 |
| 20260509083323 | 52 | 216 | 0.0 | 0.0 | 0.00 | 0.00 | 0.00 | 67 | 1013.6 |
| 20260509082820 | 53 | 216 | 0.0 | 0.0 | 0.00 | 0.00 | 0.00 | 66 | 1013.7 |
| 20260509082316 | 53 | 216 | 0.0 | 0.0 | 0.00 | 0.00 | 0.00 | 66 | 1013.9 |
| 20260509081814 | 53 | 216 | 0.0 | 0.0 | 0.00 | 0.00 | 0.00 | 66 | 1013.9 |
| 20260509081311 | 53 | 216 | 0.0 | 0.0 | 0.00 | 0.00 | 0.00 | 66 | 1013.9 |
| 20260509080809 | 53 | 216 | 0.0 | 0.0 | 0.00 | 0.00 | 0.00 | 66 | 1013.9 |
| 20260509080307 | 53 | 216 | 0.0 | 0.0 | 0.00 | 0.00 | 0.00 | 65 | 1013.8 |
| 20260509075805 | 53 | 216 | 0.0 | 0.0 | 0.00 | 0.00 | 0.00 | 64 | 1013.8 |
| 20260509075305 | 53 | 216 | 0.0 | 0.0 | 0.00 | 0.00 | 0.00 | 64 | 1013.7 |
| 20260509074759 | 53 | 216 | 0.0 | 0.0 | 0.00 | 0.00 | 0.00 | 65 | 1013.8 |
| 20260509074257 | 53 | 226 | 0.0 | 0.0 | 0.00 | 0.00 | 0.00 | 64 | 1013.9 |
| 20260509073752 | 53 | 227 | 0.0 | 1.0 | 0.00 | 0.00 | 0.00 | 64 | 1013.8 |
| 20260509073249 | 53 | 216 | 0.0 | 0.0 | 0.00 | 0.00 | 0.00 | 64 | 1013.9 |
| 20260509072745 | 54 | 216 | 0.0 | 0.0 | 0.00 | 0.00 | 0.00 | 63 | 1014.1 |
| 20260509072242 | 54 | 216 | 0.0 | 0.0 | 0.00 | 0.00 | 0.00 | 62 | 1013.9 |
| 20260509071739 | 55 | 217 | 0.0 | 0.0 | 0.00 | 0.00 | 0.00 | 61 | 1014.1 |
| 20260509071236 | 55 | 216 | 2.0 | 2.0 | 0.00 | 0.00 | 0.00 | 59 | 1013.9 |
| 20260509070733 | 55 | 227 | 1.0 | 2.0 | 0.00 | 0.00 | 0.00 | 60 | 1013.9 |
| 20260509070230 | 55 | 243 | 1.0 | 2.0 | 0.00 | 0.00 | 0.00 | 59 | 1014.0 |
| 20260509065726 | 55 | 213 | 0.0 | 2.0 | 0.00 | 0.00 | 0.00 | 60 | 1014.1 |
| 20260509065222 | 55 | 219 | 1.0 | 3.0 | 0.00 | 0.00 | 0.00 | 59 | 1014.0 |
| 20260509064719 | 55 | 209 | 2.0 | 3.0 | 0.00 | 0.00 | 0.00 | 59 | 1014.2 |
| 20260509064216 | 55 | 205 | 0.0 | 0.0 | 0.00 | 0.00 | 0.00 | 61 | 1014.0 |
| 20260509063714 | 54 | 229 | 0.0 | 0.0 | 0.00 | 0.00 | 0.00 | 62 | 1013.9 |
| 20260509063209 | 54 | 240 | 0.0 | 1.0 | 0.00 | 0.00 | 0.00 | 61 | 1014.1 |
| 20260509062707 | 55 | 201 | 0.0 | 0.0 | 0.00 | 0.00 | 0.00 | 61 | 1014.2 |
| 20260509062204 | 55 | 201 | 0.0 | 0.0 | 0.00 | 0.00 | 0.00 | 61 | 1014.3 |
| 20260509061701 | 55 | 205 | 0.0 | 0.0 | 0.00 | 0.00 | 0.00 | 60 | 1014.5 |
| 20260509061159 | 55 | 233 | 2.0 | 3.0 | 0.00 | 0.00 | 0.00 | 58 | 1014.3 |
| 20260509060656 | 55 | 71 | 3.0 | 4.0 | 0.00 | 0.00 | 0.00 | 59 | 1014.6 |
| 20260509060152 | 55 | 77 | 0.0 | 1.0 | 0.00 | 0.00 | 0.00 | 56 | 1014.6 |
| 20260509055648 | 56 | 84 | 0.0 | 3.0 | 0.00 | 0.00 | 0.00 | 57 | 1014.4 |
| 20260509055144 | 55 | 210 | 1.0 | 3.0 | 0.00 | 0.00 | 0.00 | 56 | 1014.6 |
| 20260509054641 | 54 | 272 | 0.0 | 1.0 | 0.00 | 0.00 | 0.00 | 59 | 1014.6 |
| 20260509054138 | 54 | 272 | 0.0 | 0.0 | 0.00 | 0.00 | 0.00 | 59 | 1014.7 |
| 20260509053637 | 54 | 208 | 0.0 | 0.0 | 0.00 | 0.00 | 0.00 | 59 | 1014.7 |
| 20260509053133 | 54 | 208 | 0.0 | 0.0 | 0.00 | 0.00 | 0.00 | 60 | 1014.7 |
| 20260509052631 | 53 | 208 | 0.0 | 0.0 | 0.00 | 0.00 | 0.00 | 60 | 1014.5 |
| 20260509052128 | 54 | 208 | 0.0 | 1.0 | 0.00 | 0.00 | 0.00 | 60 | 1014.7 |
| 20260509051626 | 54 | 209 | 0.0 | 0.0 | 0.00 | 0.00 | 0.00 | 60 | 1014.6 |
| 20260509051123 | 54 | 209 | 0.0 | 1.0 | 0.00 | 0.00 | 0.00 | 59 | 1014.5 |
| 20260509050620 | 54 | 198 | 0.0 | 1.0 | 0.00 | 0.00 | 0.00 | 60 | 1014.5 |
| 20260509050116 | 53 | 232 | 0.0 | 0.0 | 0.00 | 0.00 | 0.00 | 60 | 1014.6 |
| 20260509045614 | 54 | 215 | 0.0 | 0.0 | 0.00 | 0.00 | 0.00 | 59 | 1014.8 |
| 20260509045111 | 54 | 215 | 0.0 | 0.0 | 0.00 | 0.00 | 0.00 | 59 | 1014.6 |
| 20260509044608 | 55 | 218 | 0.0 | 0.0 | 0.00 | 0.00 | 0.00 | 58 | 1014.5 |
| 20260509044105 | 55 | 233 | 1.0 | 1.0 | 0.00 | 0.00 | 0.00 | 58 | 1014.4 |
| 20260509043602 | 53 | 221 | 0.0 | 2.0 | 0.00 | 0.00 | 0.00 | 59 | 1014.5 |
| 20260509043057 | 53 | 219 | 0.0 | 0.0 | 0.00 | 0.00 | 0.00 | 61 | 1014.4 |
| 20260509042554 | 53 | 221 | 0.0 | 0.0 | 0.00 | 0.00 | 0.00 | 61 | 1014.7 |
| 20260509042049 | 54 | 217 | 0.0 | 0.0 | 0.00 | 0.00 | 0.00 | 60 | 1014.5 |
| 20260509041547 | 55 | 233 | 0.0 | 0.0 | 0.00 | 0.00 | 0.00 | 59 | 1014.6 |
| 20260509041044 | 55 | 235 | 0.0 | 1.0 | 0.00 | 0.00 | 0.00 | 59 | 1014.5 |
| 20260509040543 | 55 | 229 | 1.0 | 2.0 | 0.00 | 0.00 | 0.00 | 58 | 1014.6 |
| 20260509040039 | 55 | 200 | 1.0 | 2.0 | 0.00 | 0.00 | 0.00 | 58 | 1014.6 |
| 20260509035536 | 54 | 218 | 1.0 | 2.0 | 0.00 | 0.00 | 0.00 | 58 | 1014.7 |
| 20260509035032 | 53 | 232 | 0.0 | 0.0 | 0.00 | 0.00 | 0.00 | 61 | 1014.6 |
| 20260509034531 | 53 | 216 | 0.0 | 2.0 | 0.00 | 0.00 | 0.00 | 62 | 1014.8 |
| 20260509034027 | 53 | 200 | 0.0 | 3.0 | 0.00 | 0.00 | 0.00 | 61 | 1014.5 |
| 20260509033524 | 53 | 233 | 0.0 | 1.0 | 0.00 | 0.00 | 0.00 | 63 | 1014.6 |
| 20260509033021 | 53 | 215 | 0.0 | 0.0 | 0.00 | 0.00 | 0.00 | 62 | 1014.7 |
| 20260509032519 | 53 | 215 | 0.0 | 0.0 | 0.00 | 0.00 | 0.00 | 62 | 1014.7 |